Shawmut, Alabama
Current Conditions -  °F | °C
As of 12:35 PM on Monday 20 Oct 2014 (Local Time) from KLGC Reporting Station
Broken Clouds Broken Clouds  
Wind Chill: 73°   Ceiling: 3900
Heat Index: 73°   Visibility: 10mi
Dew Point: 56°   Wind: 3mph
Humidity: 55%   Direction: 260°W
Pressure: 30.07"   Gusts: NA
Location:  32.7858°N, 85.1946°W
Report Text: KLGC 201735Z AUTO 26003KT 10SM BKN039 23/13 A3007 RMK AO2 T02270132
Loading
Personal Weather Stations






























Interactive Weather Map
Tropical Storm Tracking
New forecast layout! Learn more

10-Day Weather Forecast

Advertisements
Track Severe Weather on mobile